KFFT/FFT METAR and TAF weather

Enter ICAO airport designator
Station Type Date Time Source
KFFT METAR 2020/01/27 10:53 UTC NOAA

KFFT 271053Z AUTO 00000KT 8SM FEW010 SCT027 BKN085 04/02 A2987 RMK AO2 SLP117 T00390022


Station Type Date Time Source
KFFT Decoded METAR 2020/01/27 10:53 UTC NOAA

FRANKFORT CAPITAL CITY AIRPORT , KY, United States (KFFT) 38-11N 84-54W 236M
Jan 27, 2020 - 05:53 AM EST / 2020.01.27 1053 UTC
Wind: Calm:0
Visibility: 8 mile(s):0
Sky conditions: mostly cloudy
Temperature: 39.0 F (3.9 C)
Dew Point: 36.0 F (2.2 C)
Relative Humidity: 88%
Pressure (altimeter): 29.87 in. Hg (1011 hPa)
ob: KFFT 271053Z AUTO 00000KT 8SM FEW010 SCT027 BKN085 04/02 A2987 RMK AO2 SLP117 T00390022
cycle: 11

Station Type Date Time Source
KFFT TAF UTC NOAA

Error!

Example: see airport list